createdAt,value
2018-05-15T00:00:39.061Z,12.80
2018-05-15T00:03:06.585Z,12.80
2018-05-15T00:05:34.152Z,12.80
2018-05-15T00:08:02.445Z,12.40
2018-05-15T00:10:30.765Z,12.40
2018-05-15T00:12:58.299Z,12.40
2018-05-15T00:15:25.863Z,12.30
2018-05-15T00:17:54.606Z,12.30
2018-05-15T00:20:22.147Z,12.40
2018-05-15T00:22:49.686Z,12.60
2018-05-15T00:25:17.241Z,12.50
2018-05-15T00:27:44.806Z,12.60
2018-05-15T00:30:12.368Z,12.60
2018-05-15T00:32:41.861Z,12.60
2018-05-15T00:35:09.424Z,12.70
2018-05-15T00:37:36.984Z,12.70
2018-05-15T00:40:04.557Z,12.70
2018-05-15T00:42:32.093Z,12.70
2018-05-15T00:44:59.651Z,12.60
2018-05-15T00:47:28.629Z,12.60
2018-05-15T00:49:56.226Z,12.70
2018-05-15T00:52:23.756Z,12.70
2018-05-15T00:54:51.297Z,12.70
2018-05-15T00:57:18.859Z,12.80
2018-05-15T00:59:46.387Z,12.80
2018-05-15T01:02:13.941Z,12.80
2018-05-15T01:04:41.477Z,12.80
2018-05-15T01:07:09.042Z,12.70
2018-05-15T01:09:37.527Z,12.70
2018-05-15T01:12:05.060Z,12.70
2018-05-15T01:14:32.613Z,12.70
2018-05-15T01:17:00.141Z,12.80
2018-05-15T01:19:28.466Z,12.80
2018-05-15T01:21:55.990Z,12.80
2018-05-15T01:24:23.550Z,12.80
2018-05-15T01:26:51.077Z,12.90
2018-05-15T01:29:18.598Z,12.90
2018-05-15T01:31:46.161Z,12.90
2018-05-15T01:34:13.692Z,13.00
2018-05-15T01:36:41.253Z,12.90
2018-05-15T01:39:08.789Z,12.90
2018-05-15T01:41:36.313Z,12.90
2018-05-15T01:44:03.872Z,12.90
2018-05-15T01:46:31.414Z,12.90
2018-05-15T01:49:00.017Z,12.90
2018-05-15T01:51:27.550Z,12.90
2018-05-15T01:53:55.129Z,12.90
2018-05-15T01:56:22.685Z,12.80
2018-05-15T01:58:50.259Z,12.90
2018-05-15T02:01:18.547Z,12.90
2018-05-15T02:03:46.843Z,12.90
2018-05-15T02:06:14.397Z,12.90
2018-05-15T02:08:41.943Z,12.90
2018-05-15T02:11:09.514Z,12.90
2018-05-15T02:13:37.805Z,12.80
2018-05-15T02:16:05.363Z,12.80
2018-05-15T02:18:32.918Z,12.80
2018-05-15T02:21:00.488Z,12.70
2018-05-15T02:23:28.046Z,12.70
2018-05-15T02:25:55.623Z,12.70
2018-05-15T02:28:23.145Z,12.70
2018-05-15T02:30:51.454Z,12.50
2018-05-15T02:33:19.029Z,12.50
2018-05-15T02:35:46.602Z,12.40
2018-05-15T02:38:14.163Z,12.50
2018-05-15T02:40:41.702Z,12.40
2018-05-15T02:43:10.204Z,12.40
2018-05-15T02:45:38.537Z,12.50
2018-05-15T02:48:06.068Z,12.50
2018-05-15T02:50:33.628Z,12.60
2018-05-15T02:53:03.125Z,12.60
2018-05-15T02:55:31.422Z,12.70
2018-05-15T02:57:59.114Z,12.70
2018-05-15T03:00:26.700Z,12.50
2018-05-15T03:02:54.253Z,12.60
2018-05-15T03:05:21.819Z,12.70
2018-05-15T03:07:50.143Z,12.70
2018-05-15T03:10:17.672Z,12.70
2018-05-15T03:12:45.972Z,12.70
2018-05-15T03:15:15.217Z,12.70
2018-05-15T03:17:42.757Z,12.70
2018-05-15T03:20:10.281Z,12.80
2018-05-15T03:22:38.602Z,12.70
2018-05-15T03:25:06.133Z,12.70
2018-05-15T03:27:33.704Z,12.80
2018-05-15T03:30:01.265Z,12.80
2018-05-15T03:32:28.798Z,12.60
2018-05-15T03:34:57.102Z,12.30
2018-05-15T03:37:24.673Z,12.30
2018-05-15T03:39:52.201Z,12.40
2018-05-15T03:42:19.760Z,12.30
2018-05-15T03:44:47.335Z,12.30
2018-05-15T03:47:14.902Z,12.20
2018-05-15T03:49:42.557Z,12.40
2018-05-15T03:52:10.129Z,12.50
2018-05-15T03:54:37.681Z,12.60
2018-05-15T03:57:05.217Z,12.50
2018-05-15T03:59:32.745Z,12.40
2018-05-15T04:02:12.249Z,12.50
2018-05-15T04:04:51.636Z,12.50
2018-05-15T04:07:31.041Z,12.60
2018-05-15T04:09:59.581Z,12.70
2018-05-15T04:12:27.112Z,12.80
2018-05-15T04:14:55.439Z,12.80
2018-05-15T04:17:22.998Z,12.90
2018-05-15T04:19:50.558Z,12.70
2018-05-15T04:22:18.085Z,12.70
2018-05-15T04:24:45.622Z,12.80
2018-05-15T04:27:13.185Z,12.90
2018-05-15T04:29:41.806Z,12.70
2018-05-15T04:32:09.409Z,12.70
2018-05-15T04:34:37.917Z,12.60
2018-05-15T04:37:05.453Z,12.70
2018-05-15T04:39:33.017Z,12.80
2018-05-15T04:42:01.345Z,12.90
2018-05-15T04:44:28.919Z,12.90
2018-05-15T04:46:56.453Z,12.90
2018-05-15T04:49:24.068Z,12.80
2018-05-15T04:51:51.562Z,12.90
2018-05-15T04:54:19.093Z,13.00
2018-05-15T04:56:47.412Z,13.00
2018-05-15T04:59:14.941Z,13.00
2018-05-15T05:01:42.506Z,12.90
2018-05-15T05:04:11.020Z,13.00
2018-05-15T05:06:38.621Z,13.10
2018-05-15T05:09:06.144Z,13.10
2018-05-15T05:11:35.658Z,13.20
2018-05-15T05:14:03.225Z,13.20
2018-05-15T05:16:30.758Z,13.30
2018-05-15T05:18:58.338Z,13.30
2018-05-15T05:21:25.869Z,13.40
2018-05-15T05:23:53.529Z,13.40
2018-05-15T05:26:21.070Z,13.40
2018-05-15T05:28:48.601Z,13.40
2018-05-15T05:31:16.172Z,13.30
2018-05-15T05:33:44.581Z,13.40
2018-05-15T05:36:13.123Z,13.40
2018-05-15T05:38:41.632Z,13.50
2018-05-15T05:41:09.190Z,13.60
2018-05-15T05:43:36.718Z,13.60
2018-05-15T05:46:06.217Z,13.70
2018-05-15T05:48:34.698Z,13.70
2018-05-15T05:51:04.172Z,13.80
2018-05-15T05:53:31.734Z,13.80
2018-05-15T05:55:59.272Z,13.80
2018-05-15T05:58:26.831Z,13.90
2018-05-15T06:00:54.398Z,13.80
2018-05-15T06:03:21.967Z,13.80
2018-05-15T06:05:49.510Z,13.80
2018-05-15T06:08:19.056Z,13.80
2018-05-15T06:10:47.387Z,13.60
2018-05-15T06:13:14.924Z,13.60
2018-05-15T06:15:43.245Z,13.30
2018-05-15T06:18:10.803Z,13.30
2018-05-15T06:20:38.413Z,13.40
2018-05-15T06:23:06.686Z,13.70
2018-05-15T06:25:34.236Z,13.70
2018-05-15T06:28:01.795Z,13.70
2018-05-15T06:30:29.329Z,13.70
2018-05-15T06:32:56.904Z,13.70
2018-05-15T06:35:24.524Z,14.00
2018-05-15T06:37:52.079Z,14.20
2018-05-15T06:40:19.786Z,14.10
2018-05-15T06:42:47.354Z,14.20
2018-05-15T06:45:14.884Z,14.30
2018-05-15T06:47:42.414Z,14.30
2018-05-15T06:50:10.181Z,14.40
2018-05-15T06:52:37.845Z,14.30
2018-05-15T06:55:05.609Z,14.00
2018-05-15T06:57:33.170Z,14.00
2018-05-15T07:00:00.736Z,14.00
2018-05-15T07:02:28.285Z,14.20
2018-05-15T07:04:55.845Z,14.40
2018-05-15T07:07:23.388Z,14.10
2018-05-15T07:09:51.176Z,14.10
2018-05-15T07:12:18.736Z,14.10
2018-05-15T07:14:46.265Z,14.10
2018-05-15T07:17:13.825Z,14.20
2018-05-15T07:19:41.352Z,14.10
2018-05-15T07:22:09.692Z,14.00
2018-05-15T07:24:38.184Z,14.00
2018-05-15T07:27:05.737Z,14.20
2018-05-15T07:29:33.301Z,14.30
2018-05-15T07:32:00.849Z,14.40
2018-05-15T07:34:28.423Z,14.50
2018-05-15T07:36:56.003Z,14.70
2018-05-15T07:39:23.573Z,14.80
2018-05-15T07:41:51.124Z,14.80
2018-05-15T07:44:18.690Z,14.70
2018-05-15T07:46:46.219Z,14.70
2018-05-15T07:49:15.759Z,14.80
2018-05-15T07:51:44.244Z,15.00
2018-05-15T07:54:11.794Z,15.20
2018-05-15T07:56:39.328Z,15.30
2018-05-15T07:59:06.861Z,15.20
2018-05-15T08:01:34.445Z,15.50
2018-05-15T08:04:01.984Z,15.30
2018-05-15T08:06:29.550Z,15.20
2018-05-15T08:08:57.082Z,15.40
2018-05-15T08:11:24.632Z,15.60
2018-05-15T08:13:52.157Z,15.60
2018-05-15T08:16:19.816Z,15.60
2018-05-15T08:18:47.313Z,15.20
2018-05-15T08:21:14.879Z,15.10
2018-05-15T08:23:42.433Z,14.90
2018-05-15T08:26:09.966Z,15.00
2018-05-15T08:28:38.292Z,15.00
2018-05-15T08:31:05.907Z,15.00
2018-05-15T08:33:34.454Z,15.20
2018-05-15T08:36:01.990Z,15.60
2018-05-15T08:38:29.532Z,16.10
2018-05-15T08:40:57.205Z,16.20
2018-05-15T08:43:24.732Z,16.50
2018-05-15T08:45:52.285Z,16.70
2018-05-15T08:48:20.584Z,16.50
2018-05-15T08:50:48.117Z,16.40
2018-05-15T08:53:15.681Z,16.60
2018-05-15T08:55:43.250Z,16.80
2018-05-15T08:58:12.738Z,17.00
2018-05-15T09:00:40.265Z,17.00
2018-05-15T09:03:07.819Z,17.00
2018-05-15T09:05:35.370Z,17.00
2018-05-15T09:08:02.929Z,16.80
2018-05-15T09:10:31.425Z,16.20
2018-05-15T09:12:58.981Z,16.30
2018-05-15T09:15:27.493Z,16.40
2018-05-15T09:17:55.831Z,16.70
2018-05-15T09:20:23.393Z,16.70
2018-05-15T09:22:50.958Z,16.80
2018-05-15T09:25:18.496Z,16.90
2018-05-15T09:27:46.039Z,16.90
2018-05-15T09:30:13.606Z,17.00
2018-05-15T09:32:41.175Z,17.00
2018-05-15T09:35:08.734Z,16.90
2018-05-15T09:37:36.276Z,16.70
2018-05-15T09:40:03.995Z,16.60
2018-05-15T09:42:31.569Z,16.30
2018-05-15T09:44:59.159Z,16.20
2018-05-15T09:47:26.710Z,16.10
2018-05-15T09:49:54.281Z,16.10
2018-05-15T09:52:21.929Z,16.10
2018-05-15T09:54:49.494Z,16.40
2018-05-15T09:57:17.037Z,16.60
2018-05-15T09:59:45.332Z,17.60
2018-05-15T10:02:12.897Z,17.60
2018-05-15T10:04:40.473Z,17.80
2018-05-15T10:07:08.170Z,17.80
2018-05-15T10:09:35.820Z,17.90
2018-05-15T10:12:03.747Z,18.10
2018-05-15T10:14:32.253Z,18.50
2018-05-15T10:17:01.228Z,18.90
2018-05-15T10:19:30.152Z,19.10
2018-05-15T10:21:59.799Z,19.10
2018-05-15T10:24:29.178Z,19.10
2018-05-15T10:26:57.645Z,19.10
2018-05-15T10:29:25.210Z,19.10
2018-05-15T10:31:52.745Z,19.00
2018-05-15T10:34:20.302Z,18.80
2018-05-15T10:36:47.833Z,18.70
2018-05-15T10:39:15.373Z,18.40
2018-05-15T10:41:42.937Z,18.30
2018-05-15T10:44:12.206Z,18.50
2018-05-15T10:46:41.728Z,18.50
2018-05-15T10:49:09.278Z,19.00
2018-05-15T10:51:36.837Z,19.30
2018-05-15T10:54:04.358Z,19.40
2018-05-15T10:56:31.909Z,19.50
2018-05-15T10:58:59.430Z,19.30
2018-05-15T11:01:26.957Z,19.20
2018-05-15T11:03:54.513Z,19.50
2018-05-15T11:06:22.046Z,19.30
2018-05-15T11:08:49.601Z,19.60
2018-05-15T11:11:17.141Z,20.00
2018-05-15T11:13:46.675Z,19.90
2018-05-15T11:16:14.242Z,20.10
2018-05-15T11:18:41.824Z,20.30
2018-05-15T11:21:21.221Z,20.40
2018-05-15T11:26:50.591Z,20.10
2018-05-15T11:29:19.633Z,19.90
2018-05-15T11:31:47.169Z,19.90
2018-05-15T11:34:15.229Z,19.90
2018-05-15T11:36:43.569Z,20.20
2018-05-15T11:39:11.918Z,19.90
2018-05-15T11:41:39.507Z,19.90
2018-05-15T11:44:07.045Z,19.80
2018-05-15T11:46:35.541Z,20.10
2018-05-15T11:49:03.943Z,19.90
2018-05-15T11:51:31.569Z,20.10
2018-05-15T11:53:58.297Z,20.30
2018-05-15T11:56:25.856Z,20.60
2018-05-15T11:58:54.389Z,20.70
2018-05-15T12:01:21.924Z,20.90
2018-05-15T12:03:49.550Z,21.30
2018-05-15T12:06:17.074Z,21.40
2018-05-15T12:08:44.637Z,21.60
2018-05-15T12:11:12.941Z,21.80
2018-05-15T12:13:40.473Z,21.80
2018-05-15T12:16:08.934Z,21.20
2018-05-15T12:18:36.493Z,21.20
2018-05-15T12:21:04.102Z,20.90
2018-05-15T12:23:32.593Z,20.80
2018-05-15T12:26:00.158Z,20.80
2018-05-15T12:28:27.682Z,20.80
2018-05-15T12:30:56.022Z,20.90
2018-05-15T12:33:23.551Z,20.90
2018-05-15T12:35:51.138Z,21.30
2018-05-15T12:38:18.670Z,21.50
2018-05-15T12:40:47.418Z,21.30
2018-05-15T12:43:15.941Z,21.40
2018-05-15T12:45:44.432Z,21.40
2018-05-15T12:48:12.026Z,20.90
2018-05-15T12:50:39.544Z,20.70
2018-05-15T12:53:07.089Z,20.60
2018-05-15T12:55:34.648Z,20.50
2018-05-15T12:58:02.190Z,20.50
2018-05-15T13:00:29.742Z,20.10
2018-05-15T13:02:58.039Z,19.80
2018-05-15T13:05:25.606Z,19.70
2018-05-15T13:07:54.103Z,19.60
2018-05-15T13:10:21.645Z,19.50
2018-05-15T13:12:49.205Z,19.50
2018-05-15T13:15:16.746Z,19.40
2018-05-15T13:17:44.299Z,19.30
2018-05-15T13:20:11.828Z,19.00
2018-05-15T13:22:39.387Z,18.50
2018-05-15T13:25:07.899Z,18.00
2018-05-15T13:27:35.444Z,17.70
2018-05-15T13:30:03.769Z,17.30
2018-05-15T13:32:31.314Z,17.30
2018-05-15T13:34:58.880Z,17.10
2018-05-15T13:37:26.416Z,16.30
2018-05-15T13:39:53.963Z,15.70
2018-05-15T13:42:21.518Z,15.60
2018-05-15T13:44:49.807Z,15.90
2018-05-15T13:47:17.361Z,15.90
2018-05-15T13:49:44.890Z,16.00
2018-05-15T13:52:13.444Z,16.20
2018-05-15T13:54:41.002Z,16.30
2018-05-15T13:57:08.571Z,16.40
2018-05-15T13:59:36.092Z,16.50
2018-05-15T14:02:12.134Z,16.50
2018-05-15T14:04:41.437Z,17.00
2018-05-15T14:07:09.030Z,16.90
2018-05-15T14:09:37.566Z,17.20
2018-05-15T14:12:05.876Z,17.70
2018-05-15T14:14:33.435Z,17.70
2018-05-15T14:17:00.986Z,18.20
2018-05-15T14:19:28.557Z,18.90
2018-05-15T14:21:56.081Z,19.80
2018-05-15T14:24:24.399Z,21.90
2018-05-15T14:26:51.938Z,21.80
2018-05-15T14:29:19.471Z,22.70
2018-05-15T14:31:47.797Z,23.10
2018-05-15T14:34:15.320Z,23.10
2018-05-15T14:36:43.645Z,23.80
2018-05-15T14:39:11.176Z,23.80
2018-05-15T14:41:50.629Z,24.30
2018-05-15T14:44:18.153Z,25.30
2018-05-15T14:46:46.660Z,25.20
2018-05-15T14:49:14.182Z,25.20
2018-05-15T14:51:43.417Z,27.20
2018-05-15T14:54:10.972Z,27.10
2018-05-15T14:56:38.508Z,27.30
2018-05-15T14:59:06.826Z,24.70
2018-05-15T15:01:34.361Z,24.60
2018-05-15T15:04:01.916Z,23.60
2018-05-15T15:06:29.447Z,22.80
2018-05-15T15:08:57.770Z,21.40
2018-05-15T15:11:25.329Z,21.30
2018-05-15T15:13:52.844Z,20.80
2018-05-15T15:16:21.157Z,19.90
2018-05-15T15:18:48.685Z,19.90
2018-05-15T15:21:16.228Z,19.60
2018-05-15T15:23:44.702Z,19.10
2018-05-15T15:26:12.420Z,18.80
2018-05-15T15:28:39.974Z,18.40
2018-05-15T15:31:07.501Z,17.80
2018-05-15T15:33:35.820Z,16.10
2018-05-15T15:36:03.364Z,16.10
2018-05-15T15:38:30.948Z,15.80
2018-05-15T15:40:58.595Z,15.50
2018-05-15T15:43:28.882Z,15.50
2018-05-15T15:45:57.180Z,15.40
2018-05-15T15:48:24.741Z,15.30
2018-05-15T15:50:52.312Z,15.00
2018-05-15T15:53:19.860Z,14.80
2018-05-15T15:55:47.444Z,14.60
2018-05-15T15:58:14.978Z,14.50
2018-05-15T16:00:42.527Z,14.30
2018-05-15T16:03:10.055Z,14.20
2018-05-15T16:05:37.609Z,14.20
2018-05-15T16:08:05.141Z,14.30
2018-05-15T16:10:32.701Z,14.20
2018-05-15T16:13:00.250Z,14.20
2018-05-15T16:15:27.775Z,14.00
2018-05-15T16:17:55.342Z,14.00
2018-05-15T16:20:23.759Z,14.20
2018-05-15T16:22:51.403Z,14.20
2018-05-15T16:25:18.919Z,14.50
2018-05-15T16:27:48.425Z,14.80
2018-05-15T16:30:15.953Z,15.00
2018-05-15T16:32:43.481Z,15.70
2018-05-15T16:35:11.048Z,16.50
2018-05-15T16:37:38.656Z,16.70
2018-05-15T16:40:07.113Z,16.40
2018-05-15T16:42:35.598Z,16.30
2018-05-15T16:45:03.157Z,16.30
2018-05-15T16:47:30.730Z,16.10
2018-05-15T16:49:58.233Z,16.20
2018-05-15T16:52:25.797Z,16.00
2018-05-15T16:54:53.321Z,15.80
2018-05-15T16:57:20.868Z,15.70
2018-05-15T16:59:48.389Z,15.70
2018-05-15T17:02:16.841Z,15.70
2018-05-15T17:04:44.394Z,15.60
2018-05-15T17:07:12.105Z,15.60
2018-05-15T17:09:39.673Z,15.70
2018-05-15T17:12:07.197Z,15.60
2018-05-15T17:14:34.755Z,15.60
2018-05-15T17:17:02.290Z,15.30
2018-05-15T17:19:29.842Z,15.20
2018-05-15T17:21:57.994Z,15.20
2018-05-15T17:24:26.330Z,15.10
2018-05-15T17:26:53.858Z,15.10
2018-05-15T17:29:21.388Z,15.00
2018-05-15T17:31:49.710Z,14.40
2018-05-15T17:34:17.285Z,14.40
2018-05-15T17:36:45.790Z,14.30
2018-05-15T17:39:13.341Z,14.20
2018-05-15T17:41:41.833Z,14.30
2018-05-15T17:44:09.415Z,14.30
2018-05-15T17:46:38.911Z,14.30
2018-05-15T17:49:06.470Z,14.30
2018-05-15T17:51:36.760Z,14.00
2018-05-15T17:54:04.356Z,13.90
2018-05-15T17:56:31.880Z,13.70
2018-05-15T17:58:59.428Z,13.60
2018-05-15T18:01:27.031Z,13.70
2018-05-15T18:03:54.585Z,13.70
2018-05-15T18:06:22.108Z,13.70
2018-05-15T18:08:49.644Z,13.60
2018-05-15T18:11:18.192Z,13.50
2018-05-15T18:13:45.718Z,13.40
2018-05-15T18:16:13.281Z,13.30
2018-05-15T18:18:40.842Z,13.20
2018-05-15T18:21:08.467Z,13.20
2018-05-15T18:23:35.946Z,13.10
2018-05-15T18:26:03.583Z,13.10
2018-05-15T18:28:31.147Z,13.10
2018-05-15T18:30:58.793Z,13.10
2018-05-15T18:33:26.356Z,12.90
2018-05-15T18:35:53.892Z,12.80
2018-05-15T18:38:22.226Z,12.90
2018-05-15T18:40:49.791Z,12.90
2018-05-15T18:43:17.336Z,12.90
2018-05-15T18:45:45.888Z,12.90
2018-05-15T18:48:13.437Z,12.90
2018-05-15T18:50:40.969Z,12.80
2018-05-15T18:53:09.127Z,12.80
2018-05-15T18:55:37.546Z,12.80
2018-05-15T18:58:05.163Z,12.80
2018-05-15T19:00:32.725Z,12.80
2018-05-15T19:03:00.249Z,12.80
2018-05-15T19:05:27.797Z,12.80
2018-05-15T19:07:55.401Z,12.80
2018-05-15T19:10:22.913Z,12.70
2018-05-15T19:12:51.433Z,12.70
2018-05-15T19:15:18.981Z,12.60
2018-05-15T19:17:46.498Z,12.60
2018-05-15T19:20:14.866Z,12.60
2018-05-15T19:22:43.363Z,12.50
2018-05-15T19:25:10.885Z,12.50
2018-05-15T19:27:40.377Z,12.40
2018-05-15T19:30:07.904Z,12.30
2018-05-15T19:32:38.415Z,12.30
2018-05-15T19:35:07.892Z,12.40
2018-05-15T19:37:35.425Z,12.30
2018-05-15T19:40:08.649Z,12.40
2018-05-15T19:42:36.198Z,12.50
2018-05-15T19:45:03.740Z,12.60
2018-05-15T19:47:32.117Z,12.60
2018-05-15T19:49:59.650Z,12.50
2018-05-15T19:52:27.235Z,12.60
2018-05-15T19:54:55.765Z,12.50
2018-05-15T19:57:23.301Z,12.60
2018-05-15T19:59:50.851Z,12.60
2018-05-15T20:02:18.375Z,12.60
2018-05-15T20:04:45.933Z,12.70
2018-05-15T20:07:13.458Z,12.70
2018-05-15T20:09:41.768Z,12.50
2018-05-15T20:12:10.286Z,12.50
2018-05-15T20:14:38.152Z,12.40
2018-05-15T20:17:05.707Z,12.30
2018-05-15T20:19:33.940Z,12.20
2018-05-15T20:22:01.479Z,12.20
2018-05-15T20:24:29.011Z,12.20
2018-05-15T20:26:56.581Z,12.20
2018-05-15T20:29:25.115Z,12.10
2018-05-15T20:31:52.670Z,11.90
2018-05-15T20:34:20.225Z,11.70
2018-05-15T20:36:47.760Z,11.80
2018-05-15T20:39:16.180Z,11.90
2018-05-15T20:41:46.076Z,11.70
2018-05-15T20:44:13.598Z,11.60
2018-05-15T20:46:41.148Z,11.60
2018-05-15T20:49:08.669Z,11.80
2018-05-15T20:51:36.193Z,11.90
2018-05-15T20:54:03.738Z,11.80
2018-05-15T20:56:32.225Z,11.80
2018-05-15T20:58:59.774Z,11.60
2018-05-15T21:01:28.065Z,11.70
2018-05-15T21:03:55.623Z,11.70
2018-05-15T21:06:23.159Z,11.90
2018-05-15T21:08:50.718Z,12.00
2018-05-15T21:11:20.223Z,12.10
2018-05-15T21:13:47.774Z,12.20
2018-05-15T21:16:16.089Z,12.20
2018-05-15T21:18:43.640Z,12.20
2018-05-15T21:21:11.194Z,12.10
2018-05-15T21:23:39.504Z,12.10
2018-05-15T21:26:07.259Z,12.10
2018-05-15T21:28:34.805Z,12.10
2018-05-15T21:31:02.358Z,11.90
2018-05-15T21:33:31.863Z,11.90
2018-05-15T21:35:59.418Z,12.00
2018-05-15T21:38:28.037Z,12.00
2018-05-15T21:40:55.609Z,12.00
2018-05-15T21:43:23.142Z,11.90
2018-05-15T21:45:50.701Z,11.90
2018-05-15T21:48:18.225Z,11.90
2018-05-15T21:50:47.575Z,11.90
2018-05-15T21:53:15.141Z,11.90
2018-05-15T21:55:42.664Z,12.00
2018-05-15T21:58:10.185Z,12.00
2018-05-15T22:00:37.988Z,12.10
2018-05-15T22:03:05.571Z,11.90
2018-05-15T22:05:33.124Z,11.90
2018-05-15T22:08:00.668Z,11.90
2018-05-15T22:10:28.189Z,11.90
2018-05-15T22:13:09.628Z,11.90
2018-05-15T22:15:48.922Z,12.00
2018-05-15T22:18:28.124Z,11.80
2018-05-15T22:21:07.548Z,11.80
2018-05-15T22:23:34.596Z,11.60
2018-05-15T22:26:02.157Z,11.60
2018-05-15T22:28:29.683Z,11.60
2018-05-15T22:30:57.228Z,11.20
2018-05-15T22:33:24.753Z,11.20
2018-05-15T22:35:52.281Z,11.20
2018-05-15T22:38:19.825Z,11.30
2018-05-15T22:40:48.309Z,11.30
2018-05-15T22:43:15.871Z,11.40
2018-05-15T22:45:43.399Z,11.30
2018-05-15T22:48:10.957Z,11.30
2018-05-15T22:50:38.493Z,11.30
2018-05-15T22:53:06.058Z,11.20
2018-05-15T22:55:34.528Z,11.30
2018-05-15T22:58:04.699Z,11.10
2018-05-15T23:00:32.273Z,11.10
2018-05-15T23:02:59.950Z,11.10
2018-05-15T23:05:27.522Z,11.00
2018-05-15T23:07:55.044Z,11.00
2018-05-15T23:10:22.589Z,10.90
2018-05-15T23:12:51.194Z,10.90
2018-05-15T23:15:18.727Z,10.80
2018-05-15T23:17:46.286Z,10.90
2018-05-15T23:20:13.809Z,10.90
2018-05-15T23:22:43.186Z,10.90
2018-05-15T23:25:11.668Z,11.00
2018-05-15T23:27:39.235Z,10.90
2018-05-15T23:30:06.775Z,10.90
2018-05-15T23:32:34.322Z,11.00
2018-05-15T23:35:02.473Z,10.90
2018-05-15T23:37:30.005Z,11.00
2018-05-15T23:39:58.331Z,10.80
2018-05-15T23:42:25.861Z,10.80
2018-05-15T23:44:54.177Z,10.60
2018-05-15T23:47:21.696Z,10.60
2018-05-15T23:49:50.017Z,10.40
2018-05-15T23:52:17.538Z,10.40
2018-05-15T23:54:45.100Z,10.50
2018-05-15T23:57:12.661Z,10.70
2018-05-15T23:59:40.185Z,10.70
